createdAt,value
2018-02-06T00:00:47.544Z,101645.44
2018-02-06T00:03:20.073Z,101645.98
2018-02-06T00:05:52.568Z,101638.11
2018-02-06T00:08:25.086Z,101641.67
2018-02-06T00:10:57.568Z,101641.78
2018-02-06T00:13:30.085Z,101642.63
2018-02-06T00:16:02.571Z,101635.47
2018-02-06T00:18:35.081Z,101632.09
2018-02-06T00:21:07.569Z,101632.41
2018-02-06T00:23:40.078Z,101635.16
2018-02-06T00:26:12.596Z,101624.73
2018-02-06T00:28:45.108Z,101622.55
2018-02-06T00:31:17.613Z,101627.14
2018-02-06T00:33:50.112Z,101620.23
2018-02-06T00:36:22.615Z,101624.10
2018-02-06T00:38:55.128Z,101613.20
2018-02-06T00:41:27.616Z,101611.08
2018-02-06T00:44:00.150Z,101609.38
2018-02-06T00:46:32.640Z,101607.62
2018-02-06T00:49:05.146Z,101605.51
2018-02-06T00:51:37.636Z,101603.28
2018-02-06T00:54:10.191Z,101603.74
2018-02-06T00:56:42.697Z,101596.55
2018-02-06T00:59:15.199Z,101586.81
2018-02-06T01:01:47.696Z,101583.66
2018-02-06T01:04:20.212Z,101588.20
2018-02-06T01:06:52.713Z,101585.98
2018-02-06T01:09:25.477Z,101581.77
2018-02-06T01:11:58.012Z,101578.38
2018-02-06T01:14:30.542Z,101574.41
2018-02-06T01:17:03.033Z,101574.00
2018-02-06T01:19:35.557Z,101561.92
2018-02-06T01:22:08.036Z,101563.58
2018-02-06T01:24:40.550Z,101561.89
2018-02-06T01:27:13.060Z,101558.42
2018-02-06T01:29:45.605Z,101548.69
2018-02-06T01:32:18.096Z,101547.31
2018-02-06T01:34:50.608Z,101542.59
2018-02-06T01:37:23.093Z,101543.75
2018-02-06T01:39:55.600Z,101531.13
2018-02-06T01:42:28.088Z,101526.03
2018-02-06T01:45:00.599Z,101525.15
2018-02-06T01:47:33.092Z,101523.05
2018-02-06T01:50:05.604Z,101512.91
2018-02-06T01:52:38.099Z,101509.86
2018-02-06T01:55:10.610Z,101504.34
2018-02-06T01:57:43.094Z,101503.67
2018-02-06T02:00:15.600Z,101501.02
2018-02-06T02:02:48.096Z,101499.36
2018-02-06T02:05:20.646Z,101495.85
2018-02-06T02:07:53.174Z,101487.76
2018-02-06T02:10:25.700Z,101485.98
2018-02-06T02:12:58.187Z,101482.52
2018-02-06T02:15:30.711Z,101486.62
2018-02-06T02:18:03.210Z,101488.63
2018-02-06T02:20:35.746Z,101480.62
2018-02-06T02:23:08.455Z,101481.48
2018-02-06T02:25:41.019Z,101471.63
2018-02-06T02:28:13.507Z,101465.69
2018-02-06T02:30:46.156Z,101466.14
2018-02-06T02:33:18.676Z,101455.86
2018-02-06T02:35:51.198Z,101458.80
2018-02-06T02:38:23.717Z,101454.99
2018-02-06T02:40:56.230Z,101448.16
2018-02-06T04:40:23.735Z,101338.42
2018-02-06T04:42:56.306Z,101325.84
2018-02-06T04:45:28.843Z,101319.56
2018-02-06T04:48:01.419Z,101318.53
2018-02-06T04:50:33.930Z,101320.16
2018-02-06T04:53:06.478Z,101315.44
2018-02-06T04:55:39.033Z,101312.99
2018-02-06T04:58:11.550Z,101313.93
2018-02-06T05:00:44.080Z,101308.84
2018-02-06T05:03:16.609Z,101306.67
2018-02-06T05:05:49.130Z,101309.31
2018-02-06T05:08:21.668Z,101308.24
2018-02-06T05:10:54.161Z,101299.88
2018-02-06T05:13:26.668Z,101297.38
2018-02-06T05:15:59.180Z,101296.05
2018-02-06T05:18:31.805Z,101297.17
2018-02-06T05:21:04.331Z,101295.69
2018-02-06T05:23:40.302Z,101291.86
2018-02-06T05:26:13.752Z,101295.73
2018-02-06T05:28:46.296Z,101291.07
2018-02-06T05:31:20.816Z,101292.27
2018-02-06T05:33:53.355Z,101285.75
2018-02-06T05:36:25.893Z,101283.18
2018-02-06T05:38:58.409Z,101277.37
2018-02-06T05:41:30.971Z,101277.45
2018-02-06T05:44:03.484Z,101274.05
2018-02-06T05:46:36.013Z,101279.28
2018-02-06T05:49:08.519Z,101278.80
2018-02-06T05:51:41.044Z,101274.98
2018-02-06T05:54:13.555Z,101269.52
2018-02-06T05:56:46.075Z,101267.30
2018-02-06T05:59:18.588Z,101270.97
2018-02-06T06:01:51.136Z,101266.22
2018-02-06T06:04:23.639Z,101269.30
2018-02-06T06:06:56.166Z,101261.20
2018-02-06T06:09:28.707Z,101258.61
2018-02-06T06:12:01.222Z,101259.52
2018-02-06T06:14:33.733Z,101253.72
2018-02-06T06:17:06.267Z,101247.58
2018-02-06T06:19:38.797Z,101252.87
2018-02-06T06:22:11.331Z,101247.25
2018-02-06T06:24:43.847Z,101244.52
2018-02-06T06:27:16.347Z,101244.45
2018-02-06T06:29:48.877Z,101241.75
2018-02-06T06:32:21.424Z,101242.16
2018-02-06T06:34:54.109Z,101246.61
2018-02-06T06:37:26.622Z,101242.62
2018-02-06T06:39:59.143Z,101235.52
2018-02-06T06:42:31.715Z,101238.78
2018-02-06T06:45:04.236Z,101237.95
2018-02-06T06:47:37.001Z,101229.75
2018-02-06T06:50:09.577Z,101231.85
2018-02-06T06:52:42.097Z,101232.93
2018-02-06T06:55:14.615Z,101227.06
2018-02-06T06:57:47.112Z,101223.34
2018-02-06T07:00:19.637Z,101222.96
2018-02-06T07:02:52.137Z,101219.39
2018-02-06T07:05:24.660Z,101216.03
2018-02-06T07:07:57.156Z,101211.86
2018-02-06T07:10:29.711Z,101216.59
2018-02-06T07:13:02.334Z,101214.86
2018-02-06T07:15:34.881Z,101217.98
2018-02-06T07:18:07.389Z,101209.64
2018-02-06T07:20:40.108Z,101219.36
2018-02-06T07:23:12.619Z,101212.70
2018-02-06T07:25:45.146Z,101210.00
2018-02-06T07:28:17.657Z,101212.55
2018-02-06T07:30:50.198Z,101215.46
2018-02-06T07:33:22.701Z,101216.73
2018-02-06T07:35:55.277Z,101217.23
2018-02-06T07:38:27.936Z,101215.81
2018-02-06T07:41:00.517Z,101210.61
2018-02-06T07:43:33.045Z,101211.31
2018-02-06T07:46:05.584Z,101214.00
2018-02-06T07:48:38.090Z,101215.38
2018-02-06T07:51:10.629Z,101208.97
2018-02-06T07:53:43.217Z,101208.52
2018-02-06T07:56:15.803Z,101208.65
2018-02-06T07:58:48.320Z,101201.65
2018-02-06T08:01:20.833Z,101210.97
2018-02-06T08:03:53.361Z,101212.08
2018-02-06T08:06:25.917Z,101204.58
2018-02-06T08:08:58.875Z,101200.34
2018-02-06T08:11:31.460Z,101204.23
2018-02-06T08:14:03.976Z,101201.15
2018-02-06T08:16:36.514Z,101193.70
2018-02-06T08:19:09.015Z,101193.98
2018-02-06T08:21:41.560Z,101193.63
2018-02-06T08:24:14.059Z,101189.17
2018-02-06T08:26:46.588Z,101186.77
2018-02-06T08:29:19.104Z,101179.86
2018-02-06T08:31:51.716Z,101185.59
2018-02-06T08:34:24.290Z,101177.80
2018-02-06T08:36:56.826Z,101183.13
2018-02-06T08:39:29.443Z,101174.18
2018-02-06T08:42:01.980Z,101174.83
2018-02-06T08:44:34.531Z,101172.66
2018-02-06T08:47:07.143Z,101171.84
2018-02-06T08:49:39.648Z,101165.83
2018-02-06T08:52:12.222Z,101170.94
2018-02-06T08:54:44.752Z,101160.11
2018-02-06T08:57:17.259Z,101157.15
2018-02-06T08:59:49.766Z,101158.15
2018-02-06T09:02:22.292Z,101157.08
2018-02-06T09:04:54.826Z,101155.11
2018-02-06T09:07:27.356Z,101153.89
2018-02-06T09:09:59.856Z,101146.08
2018-02-06T09:12:32.394Z,101152.12
2018-02-06T09:15:04.908Z,101154.73
2018-02-06T09:17:37.430Z,101156.30
2018-02-06T09:20:09.926Z,101153.28
2018-02-06T09:22:42.520Z,101150.98
2018-02-06T09:25:15.057Z,101144.88
2018-02-06T09:27:47.621Z,101153.12
2018-02-06T09:30:20.214Z,101146.98
2018-02-06T09:32:52.751Z,101144.52
2018-02-06T09:35:25.270Z,101146.36
2018-02-06T09:37:57.844Z,101141.20
2018-02-06T09:40:30.355Z,101149.70
2018-02-06T09:43:02.877Z,101143.95
2018-02-06T09:45:35.377Z,101141.02
2018-02-06T09:48:07.928Z,101133.13
2018-02-06T09:50:40.442Z,101138.05
2018-02-06T09:53:13.011Z,101128.33
2018-02-06T09:55:45.508Z,101130.20
2018-02-06T09:58:18.014Z,101130.12
2018-02-06T10:00:50.522Z,101123.15
2018-02-06T10:03:23.031Z,101124.95
2018-02-06T10:05:55.544Z,101120.17
2018-02-06T10:08:28.050Z,101122.13
2018-02-06T10:11:00.572Z,101116.02
2018-02-06T10:13:33.073Z,101124.30
2018-02-06T10:16:05.595Z,101119.38
2018-02-06T10:18:38.101Z,101111.65
2018-02-06T10:21:10.632Z,101116.67
2018-02-06T10:23:43.124Z,101106.70
2018-02-06T10:26:15.651Z,101106.60
2018-02-06T10:28:48.174Z,101096.28
2018-02-06T10:31:20.755Z,101087.41
2018-02-06T10:33:53.254Z,101096.75
2018-02-06T10:36:25.775Z,101087.86
2018-02-06T10:38:58.268Z,101082.28
2018-02-06T10:41:30.783Z,101077.66
2018-02-06T10:44:03.284Z,101073.26
2018-02-06T10:46:35.800Z,101077.75
2018-02-06T10:49:08.355Z,101063.13
2018-02-06T10:51:40.859Z,101062.55
2018-02-06T10:54:13.363Z,101055.18
2018-02-06T10:56:45.884Z,101052.35
2018-02-06T10:59:18.386Z,101043.31
2018-02-06T11:01:50.926Z,101039.42
2018-02-06T11:04:23.415Z,101043.34
2018-02-06T11:06:55.940Z,101033.42
2018-02-06T11:09:28.497Z,101039.27
2018-02-06T11:12:01.017Z,101039.68
2018-02-06T11:14:33.499Z,101036.22
2018-02-06T11:17:06.020Z,101023.57
2018-02-06T11:19:38.525Z,101028.36
2018-02-06T11:22:11.040Z,101027.28
2018-02-06T11:24:43.532Z,101032.80
2018-02-06T11:27:16.048Z,101030.50
2018-02-06T11:29:48.531Z,101018.89
2018-02-06T11:32:21.086Z,101012.12
2018-02-06T11:34:53.555Z,101012.35
2018-02-06T11:37:26.073Z,101012.75
2018-02-06T11:39:58.560Z,101006.88
2018-02-06T11:42:31.085Z,100997.53
2018-02-06T11:45:03.567Z,100997.66
2018-02-06T11:47:36.072Z,100993.20
2018-02-06T11:50:08.571Z,100990.89
2018-02-06T11:52:41.083Z,100994.42
2018-02-06T11:55:13.581Z,100987.56
2018-02-06T11:57:46.102Z,100989.67
2018-02-06T12:00:18.608Z,100995.77
2018-02-06T12:02:51.111Z,100990.80
2018-02-06T12:05:23.619Z,100974.45
2018-02-06T12:07:56.147Z,100976.14
2018-02-06T12:10:28.628Z,100976.70
2018-02-06T12:13:01.142Z,100976.39
2018-02-06T12:15:33.630Z,100970.89
2018-02-06T12:18:06.145Z,100967.83
2018-02-06T12:20:38.635Z,100961.09
2018-02-06T12:23:11.141Z,100961.08
2018-02-06T12:25:43.631Z,100957.14
2018-02-06T12:28:16.140Z,100942.59
2018-02-06T12:30:48.627Z,100944.67
2018-02-06T12:33:21.138Z,100942.48
2018-02-06T12:35:53.623Z,100936.28
2018-02-06T12:38:26.126Z,100935.32
2018-02-06T12:40:59.438Z,100932.73
2018-02-06T12:43:31.967Z,100930.11
2018-02-06T12:46:04.465Z,100924.51
2018-02-06T12:48:36.983Z,100920.29
2018-02-06T12:51:09.480Z,100916.02
2018-02-06T12:53:42.011Z,100919.81
2018-02-06T12:56:14.506Z,100919.59
2018-02-06T12:58:47.020Z,100915.45
2018-02-06T13:01:19.509Z,100915.41
2018-02-06T13:03:52.007Z,100905.41
2018-02-06T13:06:24.515Z,100893.83
2018-02-06T13:08:57.050Z,100894.32
2018-02-06T13:11:29.546Z,100886.15
2018-02-06T13:14:02.057Z,100877.59
2018-02-06T13:16:34.556Z,100882.91
2018-02-06T13:19:07.082Z,100882.11
2018-02-06T13:21:39.592Z,100884.44
2018-02-06T13:24:12.100Z,100882.34
2018-02-06T13:26:44.610Z,100877.08
2018-02-06T13:29:17.128Z,100869.41
2018-02-06T13:31:49.676Z,100870.95
2018-02-06T13:34:22.175Z,100861.88
2018-02-06T13:36:54.695Z,100865.89
2018-02-06T13:39:27.189Z,100862.30
2018-02-06T13:41:59.694Z,100865.00
2018-02-06T13:44:32.181Z,100861.79
2018-02-06T13:47:04.699Z,100856.57
2018-02-06T13:49:37.191Z,100856.04
2018-02-06T13:52:09.733Z,100855.63
2018-02-06T13:54:42.220Z,100854.74
2018-02-06T13:57:14.764Z,100853.99
2018-02-06T13:59:47.256Z,100844.67
2018-02-06T14:02:19.783Z,100834.45
2018-02-06T14:04:52.308Z,100846.31
2018-02-06T14:07:24.809Z,100838.42
2018-02-06T14:09:57.308Z,100835.50
2018-02-06T14:12:29.828Z,100838.00
2018-02-06T14:15:02.333Z,100835.19
2018-02-06T14:17:34.861Z,100839.19
2018-02-06T14:20:07.367Z,100829.77
2018-02-06T14:22:39.897Z,100815.31
2018-02-06T14:25:12.401Z,100811.17
2018-02-06T14:27:44.919Z,100823.41
2018-02-06T14:30:17.424Z,100825.16
2018-02-06T14:32:49.942Z,100810.11
2018-02-06T14:35:22.444Z,100803.86
2018-02-06T14:37:54.957Z,100807.03
2018-02-06T14:40:27.445Z,100799.16
2018-02-06T14:42:59.958Z,100786.42
2018-02-06T14:45:32.450Z,100793.45
2018-02-06T14:48:04.970Z,100786.20
2018-02-06T14:50:37.464Z,100788.58
2018-02-06T14:53:09.975Z,100791.83
2018-02-06T14:55:42.471Z,100794.45
2018-02-06T14:58:14.986Z,100792.25
2018-02-06T15:00:47.478Z,100791.34
2018-02-06T15:03:19.994Z,100785.16
2018-02-06T15:05:52.484Z,100786.98
2018-02-06T15:08:25.001Z,100791.03
2018-02-06T15:10:57.737Z,100797.23
2018-02-06T15:13:30.259Z,100790.94
2018-02-06T15:16:02.740Z,100788.98
2018-02-06T15:18:35.262Z,100787.72
2018-02-06T15:21:07.746Z,100795.24
2018-02-06T15:23:40.280Z,100788.25
2018-02-06T15:26:12.787Z,100788.14
2018-02-06T15:28:45.303Z,100789.87
2018-02-06T15:31:17.792Z,100787.59
2018-02-06T15:33:50.294Z,100787.83
2018-02-06T15:36:22.806Z,100786.25
2018-02-06T15:38:55.339Z,100784.88
2018-02-06T15:41:27.829Z,100786.25
2018-02-06T15:44:00.342Z,100788.42
2018-02-06T15:46:32.846Z,100780.05
2018-02-06T15:49:05.364Z,100785.05
2018-02-06T15:51:37.872Z,100789.77
2018-02-06T15:54:10.385Z,100790.63
2018-02-06T15:56:42.867Z,100786.88
2018-02-06T15:59:15.389Z,100778.52
2018-02-06T16:01:47.879Z,100782.36
2018-02-06T16:04:20.390Z,100776.59
2018-02-06T16:06:52.893Z,100777.84
2018-02-06T16:09:25.404Z,100777.32
2018-02-06T16:11:57.897Z,100789.31
2018-02-06T16:14:30.410Z,100780.69
2018-02-06T16:17:02.906Z,100786.66
2018-02-06T16:19:35.448Z,100779.42
2018-02-06T16:22:07.967Z,100777.27
2018-02-06T16:24:40.491Z,100779.00
2018-02-06T16:27:12.989Z,100776.59
2018-02-06T16:29:45.515Z,100775.48
2018-02-06T16:32:18.003Z,100773.59
2018-02-06T16:34:50.524Z,100767.03
2018-02-06T16:37:23.019Z,100768.81
2018-02-06T16:39:55.515Z,100775.55
2018-02-06T16:42:28.007Z,100773.44
2018-02-06T16:45:00.652Z,100765.41
2018-02-06T16:47:33.153Z,100777.12
2018-02-06T16:50:09.755Z,100772.91
2018-02-06T16:52:42.246Z,100768.44
2018-02-06T16:55:14.810Z,100768.86
2018-02-06T16:57:47.297Z,100775.11
2018-02-06T17:00:19.816Z,100775.95
2018-02-06T17:02:52.341Z,100770.84
2018-02-06T17:05:24.856Z,100765.77
2018-02-06T17:07:59.343Z,100764.43
2018-02-06T17:10:31.852Z,100762.33
2018-02-06T17:13:04.379Z,100759.28
2018-02-06T17:15:36.871Z,100764.86
2018-02-06T17:18:09.432Z,100760.59
2018-02-06T17:20:41.927Z,100754.77
2018-02-06T17:25:55.200Z,100752.09
2018-02-06T17:28:28.276Z,100752.80
2018-02-06T17:31:00.781Z,100749.70
2018-02-06T17:33:33.390Z,100746.31
2018-02-06T17:36:05.974Z,100744.53
2018-02-06T17:38:39.012Z,100733.95
2018-02-06T17:41:11.527Z,100738.11
2018-02-06T17:43:44.357Z,100742.65
2018-02-06T17:46:17.104Z,100755.97
2018-02-06T17:48:49.670Z,100758.00
2018-02-06T17:51:22.384Z,100760.09
2018-02-06T17:53:55.662Z,100758.86
2018-02-06T17:56:28.144Z,100757.16
2018-02-06T17:59:00.676Z,100758.86
2018-02-06T18:01:33.176Z,100758.86
2018-02-06T18:04:05.700Z,100762.13
2018-02-06T18:06:38.193Z,100759.19
2018-02-06T18:09:10.707Z,100758.38
2018-02-06T18:11:43.199Z,100747.79
2018-02-06T18:14:15.718Z,100748.86
2018-02-06T18:16:48.212Z,100746.98
2018-02-06T18:19:20.736Z,100748.60
2018-02-06T18:21:53.251Z,100750.64
2018-02-06T18:24:25.781Z,100746.83
2018-02-06T18:26:58.894Z,100755.23
2018-02-06T18:29:31.462Z,100753.54
2018-02-06T18:32:03.973Z,100748.45
2018-02-06T18:34:37.445Z,100766.92
2018-02-06T18:37:09.970Z,100769.06
2018-02-06T18:39:42.502Z,100772.02
2018-02-06T18:42:15.218Z,100768.72
2018-02-06T18:44:47.809Z,100774.20
2018-02-06T18:47:20.367Z,100767.55
2018-02-06T18:49:53.003Z,100767.97
2018-02-06T18:52:25.499Z,100769.72
2018-02-06T18:54:58.373Z,100779.85
2018-02-06T18:57:31.009Z,100783.69
2018-02-06T19:00:04.350Z,100779.91
2018-02-06T19:02:36.891Z,100777.41
2018-02-06T19:05:09.417Z,100780.41
2018-02-06T19:07:42.336Z,100779.56
2018-02-06T19:10:14.954Z,100772.14
2018-02-06T19:12:47.475Z,100768.80
2018-02-06T19:15:20.021Z,100771.42
2018-02-06T19:17:52.538Z,100773.13
2018-02-06T19:20:25.103Z,100771.56
2018-02-06T19:22:57.598Z,100771.97
2018-02-06T19:25:30.130Z,100784.94
2018-02-06T19:28:02.639Z,100769.34
2018-02-06T19:30:35.173Z,100782.22
2018-02-06T19:33:07.719Z,100778.38
2018-02-06T19:35:40.293Z,100774.09
2018-02-06T19:38:12.794Z,100770.33
2018-02-06T19:40:45.326Z,100770.81
2018-02-06T19:43:17.838Z,100768.36
2018-02-06T19:45:50.367Z,100767.09
2018-02-06T19:48:22.893Z,100768.31
2018-02-06T19:50:55.412Z,100776.77
2018-02-06T19:53:27.915Z,100780.59
2018-02-06T19:56:00.462Z,100785.23
2018-02-06T19:58:33.014Z,100788.56
2018-02-06T20:01:05.558Z,100781.00
2018-02-06T20:03:38.069Z,100793.19
2018-02-06T20:06:10.600Z,100784.73
2018-02-06T20:08:43.133Z,100791.03
2018-02-06T20:11:15.774Z,100789.30
2018-02-06T20:13:48.345Z,100781.72
2018-02-06T20:16:20.924Z,100783.39
2018-02-06T20:18:53.467Z,100780.00
2018-02-06T20:21:26.000Z,100777.83
2018-02-06T20:23:58.651Z,100777.45
2018-02-06T20:26:31.181Z,100780.33
2018-02-06T20:29:03.698Z,100776.48
2018-02-06T20:31:36.201Z,100778.64
2018-02-06T20:34:08.795Z,100783.69
2018-02-06T20:36:41.296Z,100779.08
2018-02-06T20:39:13.844Z,100783.33
2018-02-06T20:41:46.364Z,100781.58
2018-02-06T20:44:18.896Z,100775.72
2018-02-06T20:46:51.402Z,100771.88
2018-02-06T20:49:25.042Z,100777.80
2018-02-06T20:51:57.549Z,100776.21
2018-02-06T20:54:30.189Z,100779.20
2018-02-06T20:57:02.684Z,100783.05
2018-02-06T20:59:35.230Z,100777.65
2018-02-06T21:02:07.728Z,100788.99
2018-02-06T21:04:40.276Z,100783.17
2018-02-06T21:07:12.913Z,100783.59
2018-02-06T21:09:45.484Z,100786.55
2018-02-06T21:12:17.997Z,100789.07
2018-02-06T21:14:50.534Z,100779.34
2018-02-06T21:17:23.040Z,100775.55
2018-02-06T21:19:55.582Z,100783.95
2018-02-06T21:22:28.133Z,100786.89
2018-02-06T21:25:00.671Z,100787.78
2018-02-06T21:27:33.209Z,100794.94
2018-02-06T21:30:05.892Z,100799.13
2018-02-06T21:32:38.426Z,100792.00
2018-02-06T21:35:11.670Z,100786.55
2018-02-06T21:37:44.195Z,100777.60
2018-02-06T21:40:16.717Z,100783.11
2018-02-06T21:42:49.618Z,100782.64
2018-02-06T21:45:22.129Z,100778.00
2018-02-06T21:47:54.633Z,100772.98
2018-02-06T21:50:27.178Z,100766.76
2018-02-06T21:52:59.672Z,100766.74
2018-02-06T21:55:32.255Z,100769.70
2018-02-06T21:58:04.771Z,100785.22
2018-02-06T22:00:37.293Z,100781.39
2018-02-06T22:03:09.844Z,100783.13
2018-02-06T22:05:42.358Z,100783.55
2018-02-06T22:08:14.867Z,100784.02
2018-02-06T22:10:47.386Z,100779.41
2018-02-06T22:13:19.893Z,100776.91
2018-02-06T22:15:52.413Z,100781.14
2018-02-06T22:18:24.916Z,100779.46
2018-02-06T22:20:57.436Z,100776.48
2018-02-06T22:23:29.940Z,100776.45
2018-02-06T22:26:02.456Z,100772.69
2018-02-06T22:28:34.952Z,100776.84
2018-02-06T22:31:07.526Z,100770.96
2018-02-06T22:33:40.022Z,100774.72
2018-02-06T22:36:12.569Z,100785.07
2018-02-06T22:38:45.396Z,100779.63
2018-02-06T22:41:17.924Z,100778.42
2018-02-06T22:43:50.494Z,100781.44
2018-02-06T22:46:23.029Z,100781.02
2018-02-06T22:48:55.532Z,100776.35
2018-02-06T22:51:28.061Z,100780.58
2018-02-06T22:54:00.570Z,100774.23
2018-02-06T22:56:33.097Z,100772.97
2018-02-06T22:59:06.667Z,100774.64
2018-02-06T23:01:39.188Z,100770.87
2018-02-06T23:04:11.688Z,100768.35
2018-02-06T23:06:44.212Z,100764.53
2018-02-06T23:09:16.727Z,100763.25
2018-02-06T23:11:49.252Z,100769.97
2018-02-06T23:14:21.767Z,100765.78
2018-02-06T23:16:54.293Z,100760.73
2018-02-06T23:19:26.805Z,100759.48
2018-02-06T23:21:59.325Z,100758.58
2018-02-06T23:24:31.821Z,100760.25
2018-02-06T23:27:04.345Z,100764.44
2018-02-06T23:29:36.842Z,100768.66
2018-02-06T23:32:09.389Z,100770.81
2018-02-06T23:34:41.931Z,100767.09
2018-02-06T23:37:14.459Z,100772.16
2018-02-06T23:39:46.966Z,100772.58
2018-02-06T23:42:19.561Z,100768.37
2018-02-06T23:44:52.098Z,100769.61
2018-02-06T23:47:24.678Z,100767.46
2018-02-06T23:49:57.203Z,100771.70
2018-02-06T23:52:29.734Z,100766.26
2018-02-06T23:55:02.327Z,100768.79
2018-02-06T23:57:34.918Z,100767.80
